sensor_id;sensor_type;location;lat;lon;timestamp;pressure;altitude;pressure_sealevel;temperature;humidity
50590;BME280;36547;50.514;30.840;2023-04-06T00:00:29;99509.27;;;10.09;75.10
50590;BME280;36547;50.514;30.840;2023-04-06T00:01:32;99508.41;;;10.09;75.15
50590;BME280;36547;50.514;30.840;2023-04-06T00:02:34;99503.10;;;10.09;75.16
50590;BME280;36547;50.514;30.840;2023-04-06T00:03:37;99511.92;;;10.09;75.18
50590;BME280;36547;50.514;30.840;2023-04-06T00:04:40;99506.61;;;10.09;75.24
50590;BME280;36547;50.514;30.840;2023-04-06T00:05:43;99503.10;;;10.09;75.31
50590;BME280;36547;50.514;30.840;2023-04-06T00:06:45;99503.96;;;10.09;75.29
50590;BME280;36547;50.514;30.840;2023-04-06T00:07:48;99508.41;;;10.09;75.29
50590;BME280;36547;50.514;30.840;2023-04-06T00:08:50;99508.29;;;10.10;75.29
50590;BME280;36547;50.514;30.840;2023-04-06T00:09:53;99502.98;;;10.10;75.24
50590;BME280;36547;50.514;30.840;2023-04-06T00:10:55;99504.81;;;10.10;75.25
50590;BME280;36547;50.514;30.840;2023-04-06T00:11:58;99500.45;;;10.09;75.28
50590;BME280;36547;50.514;30.840;2023-04-06T00:13:00;99498.73;;;10.08;75.32
50590;BME280;36547;50.514;30.840;2023-04-06T00:14:02;99504.14;;;10.06;75.42
50590;BME280;36547;50.514;30.840;2023-04-06T00:15:06;99508.50;;;10.07;75.53
50590;BME280;36547;50.514;30.840;2023-04-06T00:16:10;99504.05;;;10.08;75.58
50590;BME280;36547;50.514;30.840;2023-04-06T00:17:12;99504.05;;;10.08;75.63
50590;BME280;36547;50.514;30.840;2023-04-06T00:18:14;99504.05;;;10.08;75.67
50590;BME280;36547;50.514;30.840;2023-04-06T00:19:17;99498.73;;;10.08;75.66
50590;BME280;36547;50.514;30.840;2023-04-06T00:20:19;99496.17;;;10.06;75.80
50590;BME280;36547;50.514;30.840;2023-04-06T00:21:21;99497.03;;;10.07;75.87
50590;BME280;36547;50.514;30.840;2023-04-06T00:22:23;99493.52;;;10.06;75.91
50590;BME280;36547;50.514;30.840;2023-04-06T00:23:26;99493.52;;;10.06;75.92
50590;BME280;36547;50.514;30.840;2023-04-06T00:24:29;99499.69;;;10.07;75.92
50590;BME280;36547;50.514;30.840;2023-04-06T00:25:31;99504.05;;;10.08;75.94
50590;BME280;36547;50.514;30.840;2023-04-06T00:26:34;99501.57;;;10.05;76.02
50590;BME280;36547;50.514;30.840;2023-04-06T00:27:36;99493.43;;;10.08;76.01
50590;BME280;36547;50.514;30.840;2023-04-06T00:28:39;99504.14;;;10.06;75.97
50590;BME280;36547;50.514;30.840;2023-04-06T00:29:41;99486.50;;;10.05;76.06
50590;BME280;36547;50.514;30.840;2023-04-06T00:30:43;99494.55;;;10.04;76.05
50590;BME280;36547;50.514;30.840;2023-04-06T00:31:46;99500.72;;;10.04;76.06
50590;BME280;36547;50.514;30.840;2023-04-06T00:32:48;99492.84;;;10.03;76.16
50590;BME280;36547;50.514;30.840;2023-04-06T00:33:51;99498.92;;;10.05;76.18
50590;BME280;36547;50.514;30.840;2023-04-06T00:34:53;99494.55;;;10.04;76.14
50590;BME280;36547;50.514;30.840;2023-04-06T00:35:56;99500.80;;;10.03;76.21
50590;BME280;36547;50.514;30.840;2023-04-06T00:36:59;99498.15;;;10.03;76.24
50590;BME280;36547;50.514;30.840;2023-04-06T00:38:02;99497.30;;;10.02;76.21
50590;BME280;36547;50.514;30.840;2023-04-06T00:39:04;99485.82;;;10.02;76.24
50590;BME280;36547;50.514;30.840;2023-04-06T00:40:10;99483.16;;;10.02;76.28
50590;BME280;36547;50.514;30.840;2023-04-06T00:41:12;99483.16;;;10.02;76.28
50590;BME280;36547;50.514;30.840;2023-04-06T00:42:15;99483.25;;;10.00;76.29
50590;BME280;36547;50.514;30.840;2023-04-06T00:43:17;99485.82;;;10.02;76.25
50590;BME280;36547;50.514;30.840;2023-04-06T00:44:20;99477.86;;;10.02;76.31
50590;BME280;36547;50.514;30.840;2023-04-06T00:45:22;99476.91;;;10.03;76.29
50590;BME280;36547;50.514;30.840;2023-04-06T00:46:25;99475.87;;;10.05;76.27
50590;BME280;36547;50.514;30.840;2023-04-06T00:47:28;99475.02;;;10.05;76.25
50590;BME280;36547;50.514;30.840;2023-04-06T00:48:31;99478.62;;;10.04;76.22
50590;BME280;36547;50.514;30.840;2023-04-06T00:49:34;99487.36;;;10.06;76.18
50590;BME280;36547;50.514;30.840;2023-04-06T00:50:37;99482.05;;;10.06;76.25
50590;BME280;36547;50.514;30.840;2023-04-06T00:51:39;99482.05;;;10.06;76.21
50590;BME280;36547;50.514;30.840;2023-04-06T00:52:42;99485.64;;;10.05;76.22
50590;BME280;36547;50.514;30.840;2023-04-06T00:53:44;99483.84;;;10.05;76.25
50590;BME280;36547;50.514;30.840;2023-04-06T00:54:47;99483.84;;;10.05;76.29
50590;BME280;36547;50.514;30.840;2023-04-06T00:55:49;99475.02;;;10.05;76.40
50590;BME280;36547;50.514;30.840;2023-04-06T00:56:52;99476.91;;;10.03;76.45
50590;BME280;36547;50.514;30.840;2023-04-06T00:57:57;99473.31;;;10.04;76.54
50590;BME280;36547;50.514;30.840;2023-04-06T00:59:02;99476.91;;;10.03;76.58
50590;BME280;36547;50.514;30.840;2023-04-06T01:00:07;99480.52;;;10.02;76.56
50590;BME280;36547;50.514;30.840;2023-04-06T01:01:10;99491.13;;;10.02;76.61
50590;BME280;36547;50.514;30.840;2023-04-06T01:02:14;99482.22;;;10.03;76.62
50590;BME280;36547;50.514;30.840;2023-04-06T01:03:19;99480.52;;;10.02;76.56
50590;BME280;36547;50.514;30.840;2023-04-06T01:04:21;99477.09;;;10.00;76.63
50590;BME280;36547;50.514;30.840;2023-04-06T01:05:24;99475.37;;;9.99;76.56
50590;BME280;36547;50.514;30.840;2023-04-06T01:06:29;99477.86;;;10.02;76.52
50590;BME280;36547;50.514;30.840;2023-04-06T01:07:33;99476.14;;;10.01;76.61
50590;BME280;36547;50.514;30.840;2023-04-06T01:08:40;99478.80;;;10.01;76.66
50590;BME280;36547;50.514;30.840;2023-04-06T01:09:45;99482.40;;;10.00;76.67
50590;BME280;36547;50.514;30.840;2023-04-06T01:10:49;99466.47;;;10.00;76.66
50590;BME280;36547;50.514;30.840;2023-04-06T01:11:53;99477.09;;;10.00;76.61
50590;BME280;36547;50.514;30.840;2023-04-06T01:12:57;99469.13;;;10.00;76.61
50590;BME280;36547;50.514;30.840;2023-04-06T01:14:18;99479.75;;;10.00;76.57
50590;BME280;36547;50.514;30.840;2023-04-06T01:15:23;99472.64;;;10.00;76.50
50590;BME280;36547;50.514;30.840;2023-04-06T01:16:26;99477.00;;;10.01;76.48
50590;BME280;36547;50.514;30.840;2023-04-06T01:17:33;99471.69;;;10.01;76.50
50590;BME280;36547;50.514;30.840;2023-04-06T01:18:38;99469.13;;;10.00;76.59
50590;BME280;36547;50.514;30.840;2023-04-06T01:19:45;99473.49;;;10.01;76.51
50590;BME280;36547;50.514;30.840;2023-04-06T01:20:49;99477.09;;;10.00;76.49
50590;BME280;36547;50.514;30.840;2023-04-06T01:21:52;99469.89;;;10.02;76.46
50590;BME280;36547;50.514;30.840;2023-04-06T01:22:59;99471.78;;;10.00;76.49
50590;BME280;36547;50.514;30.840;2023-04-06T01:24:02;99469.13;;;10.00;76.47
50590;BME280;36547;50.514;30.840;2023-04-06T01:25:07;99475.30;;;10.00;76.47
50590;BME280;36547;50.514;30.840;2023-04-06T01:26:16;99465.94;;;10.09;76.50
50590;BME280;36547;50.514;30.840;2023-04-06T01:27:19;99475.56;;;9.96;76.60
50590;BME280;36547;50.514;30.840;2023-04-06T01:28:29;99474.73;;;9.95;76.66
50590;BME280;36547;50.514;30.840;2023-04-06T01:29:33;99477.39;;;9.95;76.61
50590;BME280;36547;50.514;30.840;2023-04-06T01:30:36;99474.61;;;9.97;76.62
50590;BME280;36547;50.514;30.840;2023-04-06T01:31:49;99470.25;;;9.96;76.56
50590;BME280;36547;50.514;30.840;2023-04-06T01:32:52;99464.12;;;9.95;76.55
50590;BME280;36547;50.514;30.840;2023-04-06T01:34:05;99477.39;;;9.95;76.55
50590;BME280;36547;50.514;30.840;2023-04-06T01:35:08;99476.33;;;9.98;76.51
50590;BME280;36547;50.514;30.840;2023-04-06T01:36:14;99473.67;;;9.98;76.51
50590;BME280;36547;50.514;30.840;2023-04-06T01:37:17;99469.98;;;10.00;76.49
50590;BME280;36547;50.514;30.840;2023-04-06T01:38:20;99469.22;;;9.98;76.49
50590;BME280;36547;50.514;30.840;2023-04-06T01:39:23;99464.85;;;9.97;76.46
50590;BME280;36547;50.514;30.840;2023-04-06T01:40:26;99461.25;;;9.98;76.47
50590;BME280;36547;50.514;30.840;2023-04-06T01:41:29;99462.02;;;10.00;76.42
50590;BME280;36547;50.514;30.840;2023-04-06T01:42:31;99469.04;;;10.01;76.32
50590;BME280;36547;50.514;30.840;2023-04-06T01:43:34;99460.22;;;10.01;76.32
50590;BME280;36547;50.514;30.840;2023-04-06T01:44:38;99472.55;;;10.02;76.30
50590;BME280;36547;50.514;30.840;2023-04-06T01:45:42;99465.53;;;10.01;76.26
50590;BME280;36547;50.514;30.840;2023-04-06T01:46:49;99473.49;;;10.01;76.32
50590;BME280;36547;50.514;30.840;2023-04-06T01:47:53;99471.78;;;10.00;76.34
50590;BME280;36547;50.514;30.840;2023-04-06T01:48:57;99466.47;;;10.00;76.31
50590;BME280;36547;50.514;30.840;2023-04-06T01:50:08;99462.11;;;9.99;76.29
50590;BME280;36547;50.514;30.840;2023-04-06T01:51:12;99468.19;;;10.01;76.29
50590;BME280;36547;50.514;30.840;2023-04-06T01:52:17;99465.53;;;10.01;76.25
50590;BME280;36547;50.514;30.840;2023-04-06T01:53:22;99459.27;;;10.02;76.21
50590;BME280;36547;50.514;30.840;2023-04-06T01:54:26;99462.88;;;10.01;76.21
50590;BME280;36547;50.514;30.840;2023-04-06T01:55:30;99460.98;;;10.03;76.24
50590;BME280;36547;50.514;30.840;2023-04-06T01:56:53;99457.48;;;10.02;76.22
50590;BME280;36547;50.514;30.840;2023-04-06T01:58:06;99460.98;;;10.03;76.22
50590;BME280;36547;50.514;30.840;2023-04-06T01:59:10;99462.61;;;10.05;76.21
50590;BME280;36547;50.514;30.840;2023-04-06T02:00:16;99464.41;;;10.05;76.18
50590;BME280;36547;50.514;30.840;2023-04-06T02:01:21;99462.70;;;10.04;76.13
50590;BME280;36547;50.514;30.840;2023-04-06T02:02:29;99464.41;;;10.05;76.16
50590;BME280;36547;50.514;30.840;2023-04-06T02:03:33;99462.70;;;10.04;76.17
50590;BME280;36547;50.514;30.840;2023-04-06T02:04:38;99455.68;;;10.03;76.21
50590;BME280;36547;50.514;30.840;2023-04-06T02:05:43;99460.98;;;10.03;76.25
50590;BME280;36547;50.514;30.840;2023-04-06T02:06:50;99461.75;;;10.05;76.26
50590;BME280;36547;50.514;30.840;2023-04-06T02:07:55;99462.78;;;10.02;76.20
50590;BME280;36547;50.514;30.840;2023-04-06T02:08:59;99461.75;;;10.05;76.25
50590;BME280;36547;50.514;30.840;2023-04-06T02:10:02;99455.50;;;10.06;76.23
50590;BME280;36547;50.514;30.840;2023-04-06T02:11:06;99459.95;;;10.05;76.21
50590;BME280;36547;50.514;30.840;2023-04-06T02:12:10;99459.95;;;10.05;76.20
50590;BME280;36547;50.514;30.840;2023-04-06T02:13:12;99459.09;;;10.05;76.24
50590;BME280;36547;50.514;30.840;2023-04-06T02:14:16;99460.89;;;10.04;76.21
50590;BME280;36547;50.514;30.840;2023-04-06T02:15:21;99457.39;;;10.04;76.20
50590;BME280;36547;50.514;30.840;2023-04-06T02:16:23;99460.04;;;10.04;76.27
50590;BME280;36547;50.514;30.840;2023-04-06T02:17:26;99459.27;;;10.02;76.33
50590;BME280;36547;50.514;30.840;2023-04-06T02:18:30;99455.68;;;10.03;76.44
50590;BME280;36547;50.514;30.840;2023-04-06T02:19:33;99453.97;;;10.02;76.48
50590;BME280;36547;50.514;30.840;2023-04-06T02:20:35;99457.48;;;10.02;76.63
50590;BME280;36547;50.514;30.840;2023-04-06T02:21:37;99458.42;;;10.01;76.73
50590;BME280;36547;50.514;30.840;2023-04-06T02:22:40;99455.86;;;10.00;76.89
50590;BME280;36547;50.514;30.840;2023-04-06T02:23:42;99454.14;;;9.99;76.95
50590;BME280;36547;50.514;30.840;2023-04-06T02:24:45;99448.84;;;9.99;77.03
50590;BME280;36547;50.514;30.840;2023-04-06T02:25:47;99448.07;;;9.97;77.07
50590;BME280;36547;50.514;30.840;2023-04-06T02:26:50;99436.52;;;9.98;77.13
50590;BME280;36547;50.514;30.840;2023-04-06T02:27:52;99436.52;;;9.98;77.27
50590;BME280;36547;50.514;30.840;2023-04-06T02:28:54;99442.67;;;9.98;77.23
50590;BME280;36547;50.514;30.840;2023-04-06T02:29:57;99441.81;;;9.98;77.18
50590;BME280;36547;50.514;30.840;2023-04-06T02:30:59;99445.42;;;9.97;77.16
50590;BME280;36547;50.514;30.840;2023-04-06T02:32:02;99440.11;;;9.97;77.16
50590;BME280;36547;50.514;30.840;2023-04-06T02:33:07;99446.27;;;9.97;77.27
50590;BME280;36547;50.514;30.840;2023-04-06T02:34:11;99441.81;;;9.98;77.29
50590;BME280;36547;50.514;30.840;2023-04-06T02:35:15;99444.47;;;9.98;77.29
50590;BME280;36547;50.514;30.840;2023-04-06T02:36:19;99446.27;;;9.97;77.37
50590;BME280;36547;50.514;30.840;2023-04-06T02:37:21;99451.49;;;9.99;77.42
50590;BME280;36547;50.514;30.840;2023-04-06T02:38:23;99451.67;;;9.96;77.51
50590;BME280;36547;50.514;30.840;2023-04-06T02:39:27;99447.13;;;9.98;77.58
50590;BME280;36547;50.514;30.840;2023-04-06T02:40:30;99436.72;;;9.95;77.66
50590;BME280;36547;50.514;30.840;2023-04-06T02:41:34;99447.22;;;9.96;77.64
50590;BME280;36547;50.514;30.840;2023-04-06T02:42:38;99449.88;;;9.96;77.69
50590;BME280;36547;50.514;30.840;2023-04-06T02:43:41;99445.42;;;9.97;77.71
50590;BME280;36547;50.514;30.840;2023-04-06T02:44:51;99446.27;;;9.97;77.67
50590;BME280;36547;50.514;30.840;2023-04-06T02:45:55;99442.89;;;9.95;77.73
50590;BME280;36547;50.514;30.840;2023-04-06T02:46:58;99442.13;;;9.93;77.82
50590;BME280;36547;50.514;30.840;2023-04-06T02:48:01;99441.17;;;9.94;77.89
50590;BME280;36547;50.514;30.840;2023-04-06T02:49:05;99440.32;;;9.93;77.95
50590;BME280;36547;50.514;30.840;2023-04-06T02:50:09;99442.03;;;9.95;78.00
50590;BME280;36547;50.514;30.840;2023-04-06T02:51:13;99431.41;;;9.95;77.97
50590;BME280;36547;50.514;30.840;2023-04-06T02:52:17;99436.72;;;9.95;78.02
50590;BME280;36547;50.514;30.840;2023-04-06T02:53:19;99439.38;;;9.95;78.02
50590;BME280;36547;50.514;30.840;2023-04-06T02:54:21;99437.58;;;9.95;78.08
50590;BME280;36547;50.514;30.840;2023-04-06T02:55:24;99436.72;;;9.95;78.04
50590;BME280;36547;50.514;30.840;2023-04-06T02:56:26;99438.61;;;9.92;78.11
50590;BME280;36547;50.514;30.840;2023-04-06T02:57:29;99439.47;;;9.93;78.18
50590;BME280;36547;50.514;30.840;2023-04-06T02:58:31;99434.16;;;9.93;78.25
50590;BME280;36547;50.514;30.840;2023-04-06T02:59:34;99435.95;;;9.92;78.30
50590;BME280;36547;50.514;30.840;2023-04-06T03:00:41;99433.30;;;9.92;78.26
50590;BME280;36547;50.514;30.840;2023-04-06T03:01:43;99434.25;;;9.91;78.25
50590;BME280;36547;50.514;30.840;2023-04-06T03:02:46;99436.05;;;9.91;78.28
50590;BME280;36547;50.514;30.840;2023-04-06T03:03:52;99435.19;;;9.90;78.28
50590;BME280;36547;50.514;30.840;2023-04-06T03:04:56;99437.84;;;9.90;78.25
50590;BME280;36547;50.514;30.840;2023-04-06T03:06:00;99436.14;;;9.89;78.21
50590;BME280;36547;50.514;30.840;2023-04-06T03:07:04;99436.99;;;9.90;78.19
50590;BME280;36547;50.514;30.840;2023-04-06T03:08:09;99445.81;;;9.90;78.07
50590;BME280;36547;50.514;30.840;2023-04-06T03:09:13;99440.50;;;9.90;78.02
50590;BME280;36547;50.514;30.840;2023-04-06T03:10:16;99440.50;;;9.90;77.98
50590;BME280;36547;50.514;30.840;2023-04-06T03:11:20;99437.08;;;9.88;78.02
50590;BME280;36547;50.514;30.840;2023-04-06T03:12:23;99433.66;;;9.86;77.99
50590;BME280;36547;50.514;30.840;2023-04-06T03:13:27;99438.02;;;9.87;78.04
50590;BME280;36547;50.514;30.840;2023-04-06T03:14:32;99433.66;;;9.86;78.03
50590;BME280;36547;50.514;30.840;2023-04-06T03:15:34;99437.26;;;9.85;78.09
50590;BME280;36547;50.514;30.840;2023-04-06T03:16:39;99435.55;;;9.84;78.10
50590;BME280;36547;50.514;30.840;2023-04-06T03:17:42;99442.56;;;9.85;78.08
50590;BME280;36547;50.514;30.840;2023-04-06T03:18:46;99435.55;;;9.84;78.01
50590;BME280;36547;50.514;30.840;2023-04-06T03:19:49;99439.91;;;9.85;78.04
50590;BME280;36547;50.514;30.840;2023-04-06T03:20:52;99440.00;;;9.84;78.10
50590;BME280;36547;50.514;30.840;2023-04-06T03:21:54;99435.55;;;9.84;78.07
50590;BME280;36547;50.514;30.840;2023-04-06T03:22:57;99437.44;;;9.82;78.07
50590;BME280;36547;50.514;30.840;2023-04-06T03:24:02;99442.75;;;9.82;78.04
50590;BME280;36547;50.514;30.840;2023-04-06T03:25:05;99440.95;;;9.83;78.07
50590;BME280;36547;50.514;30.840;2023-04-06T03:26:08;99435.73;;;9.81;78.08
50590;BME280;36547;50.514;30.840;2023-04-06T03:27:10;99438.29;;;9.83;78.09
50590;BME280;36547;50.514;30.840;2023-04-06T03:28:14;99435.73;;;9.81;78.08
50590;BME280;36547;50.514;30.840;2023-04-06T03:29:18;99441.03;;;9.81;78.05
50590;BME280;36547;50.514;30.840;2023-04-06T03:30:20;99445.52;;;9.81;78.11
50590;BME280;36547;50.514;30.840;2023-04-06T03:31:23;99444.55;;;9.82;78.09
50590;BME280;36547;50.514;30.840;2023-04-06T03:32:27;99450.61;;;9.84;78.07
50590;BME280;36547;50.514;30.840;2023-04-06T03:33:29;99453.36;;;9.82;78.06
50590;BME280;36547;50.514;30.840;2023-04-06T03:34:32;99448.91;;;9.83;78.01
50590;BME280;36547;50.514;30.840;2023-04-06T03:35:34;99451.64;;;9.81;78.06
50590;BME280;36547;50.514;30.840;2023-04-06T03:36:37;99448.05;;;9.82;78.12
50590;BME280;36547;50.514;30.840;2023-04-06T03:37:40;99453.36;;;9.82;78.09
50590;BME280;36547;50.514;30.840;2023-04-06T03:38:42;99450.61;;;9.84;78.07
50590;BME280;36547;50.514;30.840;2023-04-06T03:39:48;99448.81;;;9.84;78.01
50590;BME280;36547;50.514;30.840;2023-04-06T03:40:53;99446.16;;;9.84;77.97
50590;BME280;36547;50.514;30.840;2023-04-06T03:41:57;99449.67;;;9.85;77.98
50590;BME280;36547;50.514;30.840;2023-04-06T03:43:07;99447.88;;;9.85;77.91
50590;BME280;36547;50.514;30.840;2023-04-06T03:44:10;99445.22;;;9.85;77.89
50590;BME280;36547;50.514;30.840;2023-04-06T03:45:13;99445.22;;;9.85;77.91
50590;BME280;36547;50.514;30.840;2023-04-06T03:46:17;99444.28;;;9.86;77.86
50590;BME280;36547;50.514;30.840;2023-04-06T03:47:20;99445.98;;;9.87;77.77
50590;BME280;36547;50.514;30.840;2023-04-06T03:48:22;99445.13;;;9.87;77.76
50590;BME280;36547;50.514;30.840;2023-04-06T03:49:25;99445.98;;;9.87;77.80
50590;BME280;36547;50.514;30.840;2023-04-06T03:50:28;99445.98;;;9.87;77.81
50590;BME280;36547;50.514;30.840;2023-04-06T03:51:30;99444.28;;;9.86;77.86
50590;BME280;36547;50.514;30.840;2023-04-06T03:52:34;99445.13;;;9.87;77.78
50590;BME280;36547;50.514;30.840;2023-04-06T03:53:36;99436.31;;;9.86;77.86
50590;BME280;36547;50.514;30.840;2023-04-06T03:54:38;99438.02;;;9.87;77.80
50590;BME280;36547;50.514;30.840;2023-04-06T03:55:41;99444.28;;;9.86;77.78
50590;BME280;36547;50.514;30.840;2023-04-06T03:56:43;99442.56;;;9.85;77.72
50590;BME280;36547;50.514;30.840;2023-04-06T03:57:46;99444.28;;;9.86;77.73
50590;BME280;36547;50.514;30.840;2023-04-06T03:58:48;99445.13;;;9.87;77.74
50590;BME280;36547;50.514;30.840;2023-04-06T03:59:50;99444.28;;;9.86;77.71
50590;BME280;36547;50.514;30.840;2023-04-06T04:00:53;99451.11;;;9.90;77.67
50590;BME280;36547;50.514;30.840;2023-04-06T04:01:56;99450.26;;;9.90;77.61
50590;BME280;36547;50.514;30.840;2023-04-06T04:02:58;99453.00;;;9.88;77.62
50590;BME280;36547;50.514;30.840;2023-04-06T04:04:01;99444.09;;;9.89;77.62
50590;BME280;36547;50.514;30.840;2023-04-06T04:05:06;99446.75;;;9.89;77.63
50590;BME280;36547;50.514;30.840;2023-04-06T04:06:09;99444.28;;;9.86;77.69
50590;BME280;36547;50.514;30.840;2023-04-06T04:07:11;99448.64;;;9.87;77.74
50590;BME280;36547;50.514;30.840;2023-04-06T04:08:14;99451.30;;;9.87;77.73
50590;BME280;36547;50.514;30.840;2023-04-06T04:09:16;99442.39;;;9.88;77.76
50590;BME280;36547;50.514;30.840;2023-04-06T04:10:19;99452.15;;;9.88;77.74
50590;BME280;36547;50.514;30.840;2023-04-06T04:11:21;99457.55;;;9.86;77.82
50590;BME280;36547;50.514;30.840;2023-04-06T04:12:26;99461.91;;;9.87;77.85
50590;BME280;36547;50.514;30.840;2023-04-06T04:13:28;99451.30;;;9.87;77.84
50590;BME280;36547;50.514;30.840;2023-04-06T04:14:31;99456.52;;;9.89;77.83
50590;BME280;36547;50.514;30.840;2023-04-06T04:15:33;99447.52;;;9.91;77.78
50590;BME280;36547;50.514;30.840;2023-04-06T04:16:36;99455.39;;;9.93;77.75
50590;BME280;36547;50.514;30.840;2023-04-06T04:17:39;99456.25;;;9.93;77.74
50590;BME280;36547;50.514;30.840;2023-04-06T04:18:41;99463.27;;;9.95;77.66
50590;BME280;36547;50.514;30.840;2023-04-06T04:19:43;99452.64;;;9.95;77.58
50590;BME280;36547;50.514;30.840;2023-04-06T04:20:46;99456.03;;;9.97;77.54
50590;BME280;36547;50.514;30.840;2023-04-06T04:21:49;99455.18;;;9.96;77.56
50590;BME280;36547;50.514;30.840;2023-04-06T04:22:54;99452.44;;;9.98;77.55
50590;BME280;36547;50.514;30.840;2023-04-06T04:23:56;99457.75;;;9.98;77.55
50590;BME280;36547;50.514;30.840;2023-04-06T04:24:59;99452.44;;;9.98;77.58
50590;BME280;36547;50.514;30.840;2023-04-06T04:26:02;99457.75;;;9.98;77.49
50590;BME280;36547;50.514;30.840;2023-04-06T04:27:05;99457.75;;;9.98;77.57
50590;BME280;36547;50.514;30.840;2023-04-06T04:28:08;99455.95;;;9.98;77.61
50590;BME280;36547;50.514;30.840;2023-04-06T04:29:11;99462.96;;;9.99;77.59
50590;BME280;36547;50.514;30.840;2023-04-06T04:30:14;99463.73;;;10.01;77.57
50590;BME280;36547;50.514;30.840;2023-04-06T04:31:17;99459.27;;;10.02;77.54
50590;BME280;36547;50.514;30.840;2023-04-06T04:32:21;99462.70;;;10.04;77.51
50590;BME280;36547;50.514;30.840;2023-04-06T04:33:24;99453.88;;;10.03;77.52
50590;BME280;36547;50.514;30.840;2023-04-06T04:34:28;99456.44;;;10.05;77.50
50590;BME280;36547;50.514;30.840;2023-04-06T04:35:30;99457.30;;;10.05;77.44
50590;BME280;36547;50.514;30.840;2023-04-06T04:36:34;99457.20;;;10.07;77.47
50590;BME280;36547;50.514;30.840;2023-04-06T04:37:38;99460.63;;;10.09;77.43
50590;BME280;36547;50.514;30.840;2023-04-06T04:38:40;99457.03;;;10.10;77.38
50590;BME280;36547;50.514;30.840;2023-04-06T04:39:42;99462.34;;;10.10;77.28
50590;BME280;36547;50.514;30.840;2023-04-06T04:40:46;99469.33;;;10.11;77.28
50590;BME280;36547;50.514;30.840;2023-04-06T04:41:49;99467.44;;;10.13;77.31
50590;BME280;36547;50.514;30.840;2023-04-06T04:42:52;99471.12;;;10.10;77.35
50590;BME280;36547;50.514;30.840;2023-04-06T04:43:56;99477.20;;;10.12;77.28
50590;BME280;36547;50.514;30.840;2023-04-06T04:44:59;99475.40;;;10.13;77.24
50590;BME280;36547;50.514;30.840;2023-04-06T04:46:07;99471.03;;;10.12;77.09
50590;BME280;36547;50.514;30.840;2023-04-06T04:47:15;99472.74;;;10.13;77.17
50590;BME280;36547;50.514;30.840;2023-04-06T04:48:19;99477.11;;;10.14;77.11
50590;BME280;36547;50.514;30.840;2023-04-06T04:49:26;99476.16;;;10.15;77.09
50590;BME280;36547;50.514;30.840;2023-04-06T04:50:30;99477.02;;;10.15;77.10
50590;BME280;36547;50.514;30.840;2023-04-06T04:51:33;99482.42;;;10.14;77.10
50590;BME280;36547;50.514;30.840;2023-04-06T04:52:37;99479.77;;;10.14;77.10
50590;BME280;36547;50.514;30.840;2023-04-06T04:53:44;99480.62;;;10.14;76.94
50590;BME280;36547;50.514;30.840;2023-04-06T04:54:51;99476.16;;;10.15;76.92
50590;BME280;36547;50.514;30.840;2023-04-06T04:55:55;99483.19;;;10.16;77.04
50590;BME280;36547;50.514;30.840;2023-04-06T04:56:59;99484.89;;;10.17;76.96
50590;BME280;36547;50.514;30.840;2023-04-06T04:58:03;99485.75;;;10.17;76.85
50590;BME280;36547;50.514;30.840;2023-04-06T04:59:08;99488.34;;;10.19;76.80
50590;BME280;36547;50.514;30.840;2023-04-06T05:00:14;99482.23;;;10.17;76.77
50590;BME280;36547;50.514;30.840;2023-04-06T05:01:17;99482.18;;;10.18;76.79
50590;BME280;36547;50.514;30.840;2023-04-06T05:02:20;99479.44;;;10.20;76.77
50590;BME280;36547;50.514;30.840;2023-04-06T05:03:32;99473.33;;;10.18;76.76
50590;BME280;36547;50.514;30.840;2023-04-06T05:04:36;99477.64;;;10.20;76.71
50590;BME280;36547;50.514;30.840;2023-04-06T05:05:39;99481.15;;;10.21;76.63
50590;BME280;36547;50.514;30.840;2023-04-06T05:06:42;99481.05;;;10.22;76.50
50590;BME280;36547;50.514;30.840;2023-04-06T05:07:44;99481.05;;;10.22;76.59
50590;BME280;36547;50.514;30.840;2023-04-06T05:08:49;99486.28;;;10.24;76.68
50590;BME280;36547;50.514;30.840;2023-04-06T05:09:52;99487.95;;;10.25;76.54
50590;BME280;36547;50.514;30.840;2023-04-06T05:11:00;99476.88;;;10.33;76.65
50590;BME280;36547;50.514;30.840;2023-04-06T05:12:05;99489.97;;;10.21;76.76
50590;BME280;36547;50.514;30.840;2023-04-06T05:13:09;99487.22;;;10.23;76.75
50590;BME280;36547;50.514;30.840;2023-04-06T05:14:12;99487.10;;;10.24;76.76
50590;BME280;36547;50.514;30.840;2023-04-06T05:15:15;99484.36;;;10.26;76.83
50590;BME280;36547;50.514;30.840;2023-04-06T05:16:19;99477.16;;;10.28;76.72
50590;BME280;36547;50.514;30.840;2023-04-06T05:17:21;99476.97;;;10.31;76.58
50590;BME280;36547;50.514;30.840;2023-04-06T05:18:25;99488.45;;;10.32;76.57
50590;BME280;36547;50.514;30.840;2023-04-06T05:19:29;99491.10;;;10.32;76.55
50590;BME280;36547;50.514;30.840;2023-04-06T05:20:32;99480.39;;;10.33;76.51
50590;BME280;36547;50.514;30.840;2023-04-06T05:21:35;99481.25;;;10.34;76.54
50590;BME280;36547;50.514;30.840;2023-04-06T05:22:40;99478.50;;;10.35;76.62
50590;BME280;36547;50.514;30.840;2023-04-06T05:23:43;99487.23;;;10.37;76.50
50590;BME280;36547;50.514;30.840;2023-04-06T05:24:46;99473.00;;;10.38;76.32
50590;BME280;36547;50.514;30.840;2023-04-06T05:25:48;99475.66;;;10.38;76.24
50590;BME280;36547;50.514;30.840;2023-04-06T05:26:56;99469.28;;;10.41;76.26
50590;BME280;36547;50.514;30.840;2023-04-06T05:27:59;99472.61;;;10.44;76.18
50590;BME280;36547;50.514;30.840;2023-04-06T05:29:03;99469.00;;;10.45;76.10
50590;BME280;36547;50.514;30.840;2023-04-06T05:30:08;99476.02;;;10.46;75.99
50590;BME280;36547;50.514;30.840;2023-04-06T05:31:12;99479.45;;;10.48;76.12
50590;BME280;36547;50.514;30.840;2023-04-06T05:32:17;99479.26;;;10.51;76.06
50590;BME280;36547;50.514;30.840;2023-04-06T05:33:19;99474.80;;;10.52;76.24
50590;BME280;36547;50.514;30.840;2023-04-06T05:34:26;99472.02;;;10.53;76.29
50590;BME280;36547;50.514;30.840;2023-04-06T05:35:29;99471.84;;;10.56;76.34